Time;durP1;ratioP1;P1;durP2;ratioP2;P2;SDS_P1;SDS_P2;PMS_P1;PMS_P2;Temp;Humidity;BMP_temperature;BMP_pressure;BME280_temperature;BME280_humidity;BME280_pressure;Samples;Min_cycle;Max_cycle;Signal;HPM_P1;HPM_P2
2022/06/24 00:02:00;;;;;;;3.17;2.75;;;19.40;82.80;;;;;;5028154;28;20036;-58
2022/06/24 00:04:28;;;;;;;3.20;2.57;;;19.30;82.60;;;;;;5015668;28;20045;-58
2022/06/24 00:06:56;;;;;;;3.00;2.38;;;19.40;82.80;;;;;;5024916;28;20489;-58
2022/06/24 00:09:27;;;;;;;2.97;2.40;;;19.40;82.80;;;;;;5035998;28;20067;-58
2022/06/24 00:12:06;;;;;;;2.20;2.00;;;19.40;82.50;;;;;;5033016;28;20040;-58
2022/06/24 00:14:34;;;;;;;2.60;2.40;;;19.40;82.40;;;;;;5041294;28;20164;-58
2022/06/24 00:17:03;;;;;;;2.38;2.17;;;19.40;82.30;;;;;;5026455;28;20061;-58
2022/06/24 00:19:31;;;;;;;2.83;2.50;;;19.40;82.20;;;;;;5043920;28;20031;-58
2022/06/24 00:22:04;;;;;;;2.25;2.10;;;19.40;82.10;;;;;;5032660;28;20032;-58
2022/06/24 00:24:31;;;;;;;3.20;2.58;;;19.40;82.00;;;;;;5041531;28;20381;-58
2022/06/24 00:26:58;;;;;;;3.47;2.50;;;19.50;81.90;;;;;;5025638;28;20032;-58
2022/06/24 00:29:29;;;;;;;2.50;2.30;;;19.50;81.90;;;;;;5031166;28;20108;-58
2022/06/24 00:32:03;;;;;;;2.70;2.40;;;19.50;81.80;;;;;;5020800;28;20071;-58
2022/06/24 00:34:29;;;;;;;2.72;2.30;;;19.50;82.00;;;;;;5035301;28;20500;-58
2022/06/24 00:36:54;;;;;;;3.35;2.63;;;19.50;81.70;;;;;;5035057;28;20026;-59
2022/06/24 00:39:29;;;;;;;2.05;1.92;;;19.50;81.60;;;;;;5034395;28;20080;-58
2022/06/24 00:41:55;;;;;;;2.88;2.50;;;19.50;81.90;;;;;;5034773;28;20064;-59
2022/06/24 00:44:23;;;;;;;2.30;2.20;;;19.50;81.90;;;;;;5035091;28;20041;-58
2022/06/24 00:46:52;;;;;;;2.33;2.13;;;19.50;81.90;;;;;;5023664;28;20026;-58
2022/06/24 00:49:25;;;;;;;2.20;1.98;;;19.50;81.80;;;;;;5027708;28;20017;-58
2022/06/24 00:51:51;;;;;;;2.65;2.45;;;19.60;81.80;;;;;;5028008;28;20124;-58
2022/06/24 00:54:18;;;;;;;2.47;2.28;;;19.50;81.70;;;;;;5034998;28;20462;-58
2022/06/24 00:56:45;;;;;;;2.55;2.35;;;19.60;81.70;;;;;;5024888;28;20037;-58
2022/06/24 00:59:11;;;;;;;2.88;2.30;;;19.60;81.60;;;;;;5033251;28;20033;-58
2022/06/24 01:01:41;;;;;;;2.38;2.17;;;19.60;81.60;;;;;;5036459;28;20504;-58
2022/06/24 01:04:09;;;;;;;2.60;2.40;;;19.60;81.50;;;;;;5033333;28;20037;-58
2022/06/24 01:06:37;;;;;;;2.42;2.22;;;19.60;81.50;;;;;;5039583;28;20040;-58
2022/06/24 01:09:03;;;;;;;2.58;2.38;;;19.60;81.40;;;;;;5037533;28;20397;-58
2022/06/24 01:11:32;;;;;;;2.30;2.10;;;19.60;81.30;;;;;;5028589;28;20482;-58
2022/06/24 01:13:58;;;;;;;2.67;2.47;;;19.60;81.10;;;;;;5017159;28;20029;-58
2022/06/24 01:16:26;;;;;;;3.05;2.50;;;19.60;81.30;;;;;;5022668;28;20030;-58
2022/06/24 01:18:52;;;;;;;2.75;2.53;;;19.60;81.30;;;;;;5033987;28;20425;-58
2022/06/24 01:21:40;;;;;;;2.08;1.98;;;19.60;81.20;;;;;;5030027;28;20066;-58
2022/06/24 01:24:12;;;;;;;2.80;2.60;;;19.60;81.10;;;;;;5026837;28;20030;-59
2022/06/24 01:26:41;;;;;;;2.90;2.60;;;19.60;81.00;;;;;;5029156;28;20394;-58
2022/06/24 01:29:07;;;;;;;2.50;2.30;;;19.60;80.90;;;;;;5025959;28;20501;-58
2022/06/24 01:31:33;;;;;;;2.58;2.38;;;19.60;81.10;;;;;;5046307;28;20338;-58
2022/06/24 01:33:59;;;;;;;2.58;2.38;;;19.60;80.90;;;;;;5025371;28;20477;-58
2022/06/24 01:36:25;;;;;;;2.50;2.33;;;19.70;80.90;;;;;;5033484;28;20033;-58
2022/06/24 01:38:51;;;;;;;2.40;2.20;;;19.70;80.80;;;;;;5032588;28;20036;-58
2022/06/24 01:41:18;;;;;;;2.50;2.30;;;19.70;81.00;;;;;;5022891;28;20040;-58
2022/06/24 01:43:44;;;;;;;2.72;2.53;;;19.70;80.70;;;;;;5033967;28;20037;-58
2022/06/24 01:46:11;;;;;;;2.70;2.35;;;19.70;80.90;;;;;;5021194;28;20044;-58
2022/06/24 01:48:38;;;;;;;2.60;2.38;;;19.70;80.80;;;;;;5034238;28;20022;-58
2022/06/24 01:51:05;;;;;;;2.60;2.40;;;19.70;80.70;;;;;;5025667;28;20410;-58
2022/06/24 01:53:30;;;;;;;2.55;2.35;;;19.70;80.60;;;;;;5015600;28;20030;-58
2022/06/24 01:55:56;;;;;;;2.50;2.30;;;19.70;80.60;;;;;;5028586;28;20041;-58
2022/06/24 01:58:21;;;;;;;2.60;2.40;;;19.70;80.80;;;;;;5031799;28;20029;-58
2022/06/24 02:00:47;;;;;;;2.50;2.30;;;19.70;80.60;;;;;;5033382;28;20060;-58
2022/06/24 02:03:13;;;;;;;2.53;2.33;;;19.70;80.70;;;;;;5024555;28;20509;-58
2022/06/24 02:05:40;;;;;;;2.75;2.45;;;19.70;80.70;;;;;;5029358;28;20136;-58
2022/06/24 02:08:06;;;;;;;2.20;2.10;;;19.70;80.70;;;;;;5032036;28;20524;-58
2022/06/24 02:13:27;;;;;;;3.00;2.45;;;19.70;80.50;;;;;;5035063;28;20371;-58
2022/06/24 02:16:04;;;;;;;2.45;2.25;;;19.70;80.40;;;;;;5039769;28;20048;-58
2022/06/24 02:18:31;;;;;;;3.80;2.67;;;19.70;80.60;;;;;;5039362;28;20025;-58
2022/06/24 02:20:59;;;;;;;2.60;2.40;;;19.70;80.60;;;;;;5030899;28;20072;-58
2022/06/24 02:23:25;;;;;;;5.15;2.67;;;19.70;80.70;;;;;;5033173;28;20052;-58
2022/06/24 02:25:52;;;;;;;3.05;2.72;;;19.70;80.50;;;;;;5031956;28;20035;-58
2022/06/24 02:28:17;;;;;;;2.42;2.22;;;19.70;80.40;;;;;;5020625;28;20033;-58
2022/06/24 02:30:45;;;;;;;2.58;2.30;;;19.60;80.40;;;;;;5021791;28;20072;-58
2022/06/24 02:33:11;;;;;;;2.85;2.47;;;19.60;80.30;;;;;;5027271;28;20022;-58
2022/06/24 02:35:38;;;;;;;2.70;2.50;;;19.60;80.60;;;;;;5026160;28;20117;-58
2022/06/24 02:38:05;;;;;;;2.60;2.40;;;19.70;80.90;;;;;;5026012;28;20087;-58
2022/06/24 02:40:46;;;;;;;2.58;2.38;;;19.60;80.80;;;;;;5033575;28;20021;-58
2022/06/24 02:43:22;;;;;;;2.70;2.30;;;19.60;80.80;;;;;;5031865;28;20034;-58
2022/06/24 02:45:50;;;;;;;4.22;2.63;;;19.60;80.90;;;;;;5033046;28;20481;-58
2022/06/24 02:48:17;;;;;;;2.88;2.50;;;19.60;80.80;;;;;;5031276;28;20112;-59
2022/06/24 02:50:54;;;;;;;2.22;2.03;;;19.70;80.80;;;;;;5032886;28;20034;-59
2022/06/24 02:53:20;;;;;;;2.58;2.20;;;19.70;80.90;;;;;;5032228;28;20516;-59
2022/06/24 02:55:49;;;;;;;2.60;2.40;;;19.80;81.00;;;;;;5033070;28;20026;-58
2022/06/24 02:58:15;;;;;;;2.47;2.28;;;19.80;80.80;;;;;;5029767;28;20079;-58
2022/06/24 03:00:42;;;;;;;2.50;2.30;;;19.80;80.70;;;;;;5025037;28;20061;-59
2022/06/24 03:03:12;;;;;;;2.92;2.38;;;19.90;80.70;;;;;;5031228;28;20385;-58
2022/06/24 03:05:38;;;;;;;2.92;2.72;;;19.90;80.40;;;;;;5023474;28;20032;-58
2022/06/24 03:08:05;;;;;;;2.58;2.38;;;19.90;80.20;;;;;;5031966;28;20064;-58
2022/06/24 03:10:30;;;;;;;2.90;2.67;;;19.90;80.30;;;;;;5032703;28;20470;-58
2022/06/24 03:12:56;;;;;;;3.13;2.60;;;19.90;80.20;;;;;;5032311;28;20026;-58
2022/06/24 03:15:22;;;;;;;4.15;2.67;;;19.90;80.20;;;;;;5021647;28;20395;-58
2022/06/24 03:17:48;;;;;;;2.40;2.20;;;19.90;80.00;;;;;;5024623;28;20087;-58
2022/06/24 03:20:14;;;;;;;3.00;2.70;;;19.90;80.00;;;;;;5032591;28;20037;-59
2022/06/24 03:22:40;;;;;;;2.45;2.25;;;19.90;79.90;;;;;;5031339;28;20053;-58
2022/06/24 03:25:06;;;;;;;2.40;2.20;;;19.90;79.70;;;;;;5036703;28;20370;-58
2022/06/24 03:27:32;;;;;;;3.38;2.60;;;19.90;79.90;;;;;;5030049;28;20018;-58
2022/06/24 03:29:58;;;;;;;3.20;2.50;;;19.90;80.10;;;;;;5027521;28;20083;-58
2022/06/24 03:32:24;;;;;;;3.30;2.50;;;19.90;80.10;;;;;;5024846;28;20044;-59
2022/06/24 03:34:50;;;;;;;2.70;2.50;;;20.00;80.50;;;;;;5026062;28;20018;-59
2022/06/24 03:37:16;;;;;;;3.42;2.50;;;20.20;80.80;;;;;;5032122;28;20091;-59
2022/06/24 03:39:42;;;;;;;3.15;2.42;;;20.50;81.90;;;;;;5034701;28;20029;-59
2022/06/24 03:42:08;;;;;;;3.20;2.40;;;21.00;81.70;;;;;;5023428;28;20433;-59
2022/06/24 03:44:33;;;;;;;2.22;2.03;;;21.50;80.60;;;;;;5027868;28;20037;-59
2022/06/24 03:47:01;;;;;;;2.17;2.05;;;22.10;79.60;;;;;;5033036;28;20504;-59
2022/06/24 03:49:27;;;;;;;2.22;2.03;;;22.70;77.40;;;;;;5023270;28;20054;-59
2022/06/24 03:51:53;;;;;;;2.50;2.30;;;23.10;75.90;;;;;;5035729;28;20401;-59
2022/06/24 03:54:19;;;;;;;2.38;2.17;;;23.50;75.30;;;;;;5021959;28;20025;-59
2022/06/24 03:56:45;;;;;;;1.90;1.80;;;24.10;74.60;;;;;;5024641;28;20045;-59
2022/06/24 03:59:11;;;;;;;2.90;2.53;;;24.80;72.30;;;;;;5033390;28;20033;-59
2022/06/24 04:01:36;;;;;;;2.95;2.13;;;25.00;70.40;;;;;;5035639;28;20026;-59
2022/06/24 04:04:02;;;;;;;2.30;2.10;;;25.00;69.20;;;;;;5034568;28;20044;-58
2022/06/24 04:06:28;;;;;;;2.15;1.88;;;24.80;68.40;;;;;;5021111;28;20029;-59
2022/06/24 04:08:55;;;;;;;5.13;2.38;;;24.60;68.50;;;;;;5035528;28;20025;-57
2022/06/24 04:11:21;;;;;;;2.30;2.10;;;24.20;68.40;;;;;;5035081;28;20033;-57
2022/06/24 04:13:47;;;;;;;2.42;2.22;;;23.80;68.70;;;;;;5034713;28;20030;-57
2022/06/24 04:16:13;;;;;;;2.60;2.40;;;23.50;68.80;;;;;;5035434;28;20481;-56
2022/06/24 04:18:39;;;;;;;2.42;2.22;;;23.10;69.40;;;;;;5028989;28;20053;-57
2022/06/24 04:21:13;;;;;;;2.92;2.22;;;22.80;69.90;;;;;;5024183;28;20055;-57
2022/06/24 04:23:39;;;;;;;2.92;2.63;;;22.50;70.50;;;;;;5025738;28;20605;-57
2022/06/24 04:26:05;;;;;;;2.55;2.28;;;22.30;70.80;;;;;;5023203;28;20053;-57
2022/06/24 04:28:31;;;;;;;2.92;2.35;;;22.10;70.90;;;;;;5025158;28;20446;-57
2022/06/24 04:30:57;;;;;;;2.90;2.58;;;22.00;71.40;;;;;;5017726;28;20060;-57
2022/06/24 04:33:22;;;;;;;2.38;2.17;;;21.80;71.80;;;;;;5045889;28;20025;-57
2022/06/24 04:35:48;;;;;;;2.70;2.50;;;21.70;72.20;;;;;;5026584;28;20084;-57
2022/06/24 04:38:14;;;;;;;4.18;2.78;;;21.70;72.60;;;;;;5029644;28;20112;-59
2022/06/24 04:40:40;;;;;;;2.78;2.20;;;21.70;72.60;;;;;;5034615;28;20473;-58
2022/06/24 04:43:06;;;;;;;2.92;2.55;;;21.70;72.70;;;;;;5033174;28;20079;-58
2022/06/24 04:45:32;;;;;;;2.42;2.22;;;21.90;73.20;;;;;;5019078;28;20061;-59
2022/06/24 04:47:57;;;;;;;2.75;2.55;;;22.30;73.10;;;;;;5025399;28;20017;-60
2022/06/24 04:50:23;;;;;;;3.20;2.70;;;22.60;71.80;;;;;;5031770;28;20025;-59
2022/06/24 04:52:49;;;;;;;2.15;2.03;;;22.70;70.80;;;;;;5034533;28;20103;-59
2022/06/24 04:55:15;;;;;;;2.65;2.42;;;22.70;70.50;;;;;;5032282;28;20370;-58
2022/06/24 04:57:40;;;;;;;2.70;2.50;;;22.60;70.10;;;;;;5033856;28;20037;-58
2022/06/24 05:00:09;;;;;;;2.63;2.42;;;22.40;70.30;;;;;;5021057;28;20054;-57
2022/06/24 05:02:35;;;;;;;3.60;2.60;;;22.30;70.60;;;;;;5030788;28;20029;-59
2022/06/24 05:05:01;;;;;;;2.53;2.33;;;22.20;71.00;;;;;;5015472;28;20112;-59
2022/06/24 05:07:27;;;;;;;2.60;2.35;;;22.00;71.10;;;;;;5032621;28;20033;-58
2022/06/24 05:09:53;;;;;;;3.17;2.80;;;21.90;71.40;;;;;;5033466;28;20072;-58
2022/06/24 05:12:18;;;;;;;3.17;2.88;;;21.80;71.60;;;;;;5032622;28;20025;-59
2022/06/24 05:14:44;;;;;;;2.88;2.65;;;21.60;72.10;;;;;;5034093;28;20026;-59
2022/06/24 05:17:10;;;;;;;2.97;2.67;;;21.60;72.30;;;;;;5034717;28;20056;-58
2022/06/24 05:19:36;;;;;;;4.63;2.70;;;21.50;72.50;;;;;;5034398;28;20041;-58
2022/06/24 05:22:02;;;;;;;2.70;2.50;;;21.50;72.80;;;;;;5036296;28;20049;-59
2022/06/24 05:24:27;;;;;;;2.97;2.65;;;21.40;73.20;;;;;;5029205;28;20036;-59
2022/06/24 05:26:53;;;;;;;2.80;2.50;;;21.30;73.30;;;;;;5032547;28;20083;-59
2022/06/24 05:29:19;;;;;;;2.70;2.50;;;21.30;73.50;;;;;;5022438;28;20026;-59
2022/06/24 05:31:45;;;;;;;4.18;2.60;;;21.20;73.50;;;;;;5032970;28;20022;-59
2022/06/24 05:34:11;;;;;;;3.47;2.75;;;21.20;73.30;;;;;;5033521;28;20026;-59
2022/06/24 05:36:37;;;;;;;3.33;2.65;;;21.20;73.60;;;;;;5025685;28;20025;-59
2022/06/24 05:39:06;;;;;;;3.17;2.50;;;21.20;73.50;;;;;;5029028;28;20033;-59
2022/06/24 05:41:33;;;;;;;3.22;2.75;;;21.20;73.60;;;;;;5031792;28;20033;-59
2022/06/24 05:44:00;;;;;;;3.28;2.80;;;21.10;73.90;;;;;;5018760;28;20053;-59
2022/06/24 05:46:26;;;;;;;2.70;2.50;;;21.10;74.00;;;;;;5020590;28;20026;-59
2022/06/24 05:48:52;;;;;;;3.03;2.72;;;21.20;74.10;;;;;;5028077;28;20029;-59
2022/06/24 05:51:18;;;;;;;2.83;2.53;;;21.10;74.30;;;;;;5030868;28;20068;-58
2022/06/24 05:56:30;;;;;;;3.13;2.67;;;21.10;74.20;;;;;;5014686;28;20037;-58
2022/06/24 05:58:57;;;;;;;4.45;2.80;;;21.10;74.20;;;;;;5014509;28;20026;-58
2022/06/24 06:01:23;;;;;;;3.10;2.80;;;21.10;74.40;;;;;;5019167;28;20421;-58
2022/06/24 06:03:49;;;;;;;2.88;2.65;;;21.20;74.60;;;;;;5020955;28;20076;-59
2022/06/24 06:06:15;;;;;;;2.83;2.50;;;21.20;74.70;;;;;;5020996;28;20030;-58
2022/06/24 06:08:41;;;;;;;2.88;2.67;;;21.20;74.70;;;;;;5023567;28;20025;-59
2022/06/24 06:11:22;;;;;;;3.53;3.08;;;21.10;74.70;;;;;;5027640;28;20037;-58
2022/06/24 06:13:48;;;;;;;;;;;21.20;74.90;;;;;;5021623;28;20022;-59
2022/06/24 06:16:15;;;;;;;2.72;2.53;;;21.20;74.90;;;;;;5029947;28;19909;-59
2022/06/24 06:18:40;;;;;;;2.88;2.67;;;21.20;75.00;;;;;;5023326;28;20504;-59
2022/06/24 06:21:08;;;;;;;2.97;2.70;;;21.20;75.20;;;;;;5020126;28;20036;-59
2022/06/24 06:23:35;;;;;;;5.30;2.90;;;21.20;75.20;;;;;;5017119;28;20034;-59
2022/06/24 06:26:02;;;;;;;3.28;2.72;;;21.20;75.40;;;;;;5012947;28;20120;-59
2022/06/24 06:28:28;;;;;;;2.70;2.50;;;21.30;75.50;;;;;;5015833;28;20371;-59
2022/06/24 06:30:54;;;;;;;3.13;2.70;;;21.40;75.50;;;;;;5017769;28;20076;-59
2022/06/24 06:33:20;;;;;;;2.65;2.45;;;21.40;75.40;;;;;;5015196;28;20075;-59
2022/06/24 06:35:45;;;;;;;3.17;2.88;;;21.50;75.20;;;;;;5013729;28;20031;-59
2022/06/24 06:38:11;;;;;;;3.13;2.83;;;21.50;75.20;;;;;;5018464;28;20043;-59
2022/06/24 06:40:38;;;;;;;3.00;2.67;;;21.60;75.20;;;;;;5006399;28;20037;-59
2022/06/24 06:43:06;;;;;;;3.20;2.63;;;21.60;75.10;;;;;;5016902;28;20049;-59
2022/06/24 06:45:33;;;;;;;3.47;2.97;;;21.70;75.20;;;;;;5015828;28;20033;-59
2022/06/24 06:47:59;;;;;;;2.63;2.35;;;21.80;75.10;;;;;;5013952;28;20026;-59
2022/06/24 06:50:25;;;;;;;3.03;2.78;;;21.80;75.00;;;;;;5011636;28;20096;-59
2022/06/24 06:52:51;;;;;;;3.25;2.95;;;21.80;75.20;;;;;;5015262;28;20053;-58
2022/06/24 06:55:17;;;;;;;2.88;2.55;;;21.90;75.30;;;;;;5011913;28;20029;-59
2022/06/24 06:57:42;;;;;;;2.65;2.45;;;21.90;75.20;;;;;;5008250;28;20034;-59
2022/06/24 07:00:09;;;;;;;3.38;2.90;;;22.00;75.10;;;;;;5010725;28;20509;-59
2022/06/24 07:02:36;;;;;;;3.35;2.67;;;22.00;74.80;;;;;;5003612;28;20037;-59
2022/06/24 07:05:02;;;;;;;3.60;3.10;;;22.00;74.60;;;;;;4998058;28;20030;-59
2022/06/24 07:07:28;;;;;;;3.05;2.75;;;22.00;74.30;;;;;;5003764;28;20108;-59
2022/06/24 07:09:54;;;;;;;3.20;2.90;;;22.00;74.20;;;;;;5003325;28;20108;-59
2022/06/24 07:12:20;;;;;;;2.70;2.50;;;22.10;74.40;;;;;;4999647;28;20037;-58
2022/06/24 07:14:46;;;;;;;3.20;2.90;;;22.10;74.50;;;;;;4997176;28;20401;-59
2022/06/24 07:17:12;;;;;;;3.20;2.90;;;22.10;74.40;;;;;;5002765;28;20096;-59
2022/06/24 07:19:38;;;;;;;3.83;3.08;;;22.20;74.40;;;;;;5006782;28;20401;-59
2022/06/24 07:22:03;;;;;;;2.92;2.63;;;22.20;74.40;;;;;;5006440;28;20485;-59
2022/06/24 07:24:30;;;;;;;3.33;3.03;;;22.30;74.30;;;;;;5003583;28;20033;-59
2022/06/24 07:26:55;;;;;;;3.22;2.83;;;22.30;74.30;;;;;;5003556;28;20506;-59
2022/06/24 07:29:21;;;;;;;2.97;2.63;;;22.30;73.90;;;;;;5009718;28;20045;-59
2022/06/24 07:31:47;;;;;;;4.05;2.90;;;22.30;73.90;;;;;;5008167;28;20100;-59
2022/06/24 07:34:16;;;;;;;3.30;2.90;;;22.30;74.10;;;;;;4999359;28;20401;-59
2022/06/24 07:36:42;;;;;;;2.67;2.47;;;22.30;74.10;;;;;;5008383;28;20033;-59
2022/06/24 07:39:08;;;;;;;3.30;2.83;;;22.40;74.30;;;;;;4993509;28;20030;-59
2022/06/24 07:41:34;;;;;;;3.38;3.00;;;22.40;74.40;;;;;;5010384;28;20592;-59
2022/06/24 07:43:59;;;;;;;3.00;2.67;;;22.50;74.40;;;;;;5005039;28;20042;-59
2022/06/24 07:46:27;;;;;;;2.65;2.45;;;22.60;74.20;;;;;;5004317;28;20049;-59
2022/06/24 07:48:52;;;;;;;2.80;2.53;;;22.70;74.10;;;;;;5003504;28;20036;-58
2022/06/24 07:51:19;;;;;;;2.63;2.20;;;22.80;73.70;;;;;;4995428;28;20038;-58
2022/06/24 07:53:46;;;;;;;2.65;2.45;;;22.90;73.40;;;;;;4993692;28;20033;-59
2022/06/24 07:58:57;;;;;;;2.40;2.20;;;23.10;73.00;;;;;;5005209;28;20044;-58
2022/06/24 08:01:23;;;;;;;2.60;2.40;;;23.10;72.70;;;;;;4997916;28;20513;-58
2022/06/24 08:03:48;;;;;;;2.60;2.35;;;23.10;72.60;;;;;;4998033;28;20068;-58
2022/06/24 08:06:14;;;;;;;3.08;2.30;;;23.20;72.60;;;;;;4999729;28;20048;-58
2022/06/24 08:08:40;;;;;;;2.45;2.25;;;23.20;72.80;;;;;;4997000;28;20030;-57
2022/06/24 08:11:06;;;;;;;2.42;2.22;;;23.20;72.80;;;;;;5010944;28;20168;-58
2022/06/24 08:13:32;;;;;;;2.60;2.40;;;23.30;73.10;;;;;;5005178;28;20033;-58
2022/06/24 08:15:58;;;;;;;2.70;2.50;;;23.40;73.00;;;;;;5000486;28;20030;-56
2022/06/24 08:18:23;;;;;;;2.90;2.65;;;23.40;72.70;;;;;;5008770;28;20095;-59
2022/06/24 08:20:49;;;;;;;2.35;2.10;;;23.50;72.70;;;;;;4998214;28;20026;-59
2022/06/24 08:23:15;;;;;;;2.28;2.08;;;23.50;72.50;;;;;;4999851;28;20049;-59
2022/06/24 08:25:41;;;;;;;2.38;2.17;;;23.50;72.40;;;;;;5002092;28;20033;-59
2022/06/24 08:28:07;;;;;;;2.10;2.00;;;23.50;72.20;;;;;;5007213;28;20031;-58
2022/06/24 08:30:34;;;;;;;2.40;2.20;;;23.50;72.30;;;;;;5004895;28;20037;-59
2022/06/24 08:33:00;;;;;;;2.50;2.30;;;23.50;72.40;;;;;;4998766;28;20030;-58
2022/06/24 08:35:26;;;;;;;2.65;2.35;;;23.50;72.90;;;;;;5004671;28;20112;-58
2022/06/24 08:37:52;;;;;;;2.88;2.50;;;23.40;72.20;;;;;;5002073;28;20095;-58
2022/06/24 08:40:19;;;;;;;2.42;2.22;;;23.40;72.10;;;;;;5002902;28;21506;-59
2022/06/24 08:42:48;;;;;;;2.60;2.40;;;23.40;72.70;;;;;;4999381;28;20091;-58
2022/06/24 08:45:14;;;;;;;2.53;2.33;;;23.40;72.60;;;;;;4998394;28;20171;-59
2022/06/24 08:47:41;;;;;;;2.70;2.45;;;23.50;72.80;;;;;;5002904;28;20367;-59
2022/06/24 08:50:07;;;;;;;3.90;3.20;;;23.50;73.50;;;;;;4999997;28;20026;-58
2022/06/24 08:52:33;;;;;;;3.45;2.50;;;23.60;73.00;;;;;;5004381;28;20057;-58
2022/06/24 08:55:04;;;;;;;3.10;2.80;;;23.60;72.70;;;;;;4997852;28;20061;-58
2022/06/24 08:57:31;;;;;;;3.20;2.70;;;23.70;72.60;;;;;;4996014;28;20055;-58
2022/06/24 08:59:57;;;;;;;2.80;2.50;;;23.70;72.20;;;;;;4995937;28;20037;-58
2022/06/24 09:02:22;;;;;;;3.08;2.72;;;23.70;72.40;;;;;;5001017;28;20033;-60
2022/06/24 09:04:48;;;;;;;2.80;2.53;;;23.70;72.60;;;;;;4999045;28;20032;-59
2022/06/24 09:07:27;;;;;;;3.03;2.72;;;23.70;72.50;;;;;;4998405;28;20034;-57
2022/06/24 09:09:58;;;;;;;3.05;2.75;;;23.80;72.30;;;;;;5004236;28;20029;-58
2022/06/24 09:12:23;;;;;;;3.60;2.75;;;23.80;72.20;;;;;;5006474;28;20462;-58
2022/06/24 09:14:49;;;;;;;3.30;2.80;;;23.70;72.10;;;;;;5001502;28;20033;-58
2022/06/24 09:17:15;;;;;;;3.75;3.00;;;23.70;72.10;;;;;;4997787;28;20654;-58
2022/06/24 09:19:40;;;;;;;3.08;2.78;;;23.70;72.10;;;;;;5005031;28;20502;-58
2022/06/24 09:22:06;;;;;;;3.22;2.90;;;23.70;72.20;;;;;;4998934;28;20037;-58
2022/06/24 09:24:48;;;;;;;3.28;2.97;;;23.60;72.30;;;;;;4994541;28;20082;-58
2022/06/24 09:27:14;;;;;;;3.38;3.08;;;23.60;72.30;;;;;;5003084;28;20149;-58
2022/06/24 09:29:49;;;;;;;3.90;3.25;;;23.50;72.40;;;;;;5005720;28;20456;-59
2022/06/24 09:32:15;;;;;;;4.05;2.92;;;23.50;72.30;;;;;;4996296;28;20033;-58
2022/06/24 09:35:04;;;;;;;3.45;2.97;;;23.50;72.60;;;;;;4999703;28;20021;-58
2022/06/24 09:37:50;;;;;;;4.95;3.13;;;23.50;72.60;;;;;;5001940;28;20393;-58
2022/06/24 09:40:26;;;;;;;3.75;3.00;;;23.50;72.50;;;;;;4995198;28;20410;-57
2022/06/24 09:43:02;;;;;;;3.22;2.92;;;23.50;72.80;;;;;;5003431;28;20036;-58
2022/06/24 09:45:49;;;;;;;3.65;3.03;;;23.40;72.90;;;;;;5002400;28;20037;-58
2022/06/24 09:48:34;;;;;;;5.38;3.00;;;23.40;72.30;;;;;;5001602;28;20028;-57
2022/06/24 09:51:02;;;;;;;3.28;2.97;;;23.30;72.10;;;;;;5001446;28;20124;-59
2022/06/24 09:53:40;;;;;;;3.75;3.05;;;23.20;72.40;;;;;;5003176;28;20025;-59
2022/06/24 09:56:08;;;;;;;3.28;2.97;;;23.10;72.30;;;;;;5003626;28;20033;-59
2022/06/24 09:58:35;;;;;;;3.10;2.80;;;23.10;72.60;;;;;;5001870;28;20488;-58
2022/06/24 10:01:01;;;;;;;3.58;3.20;;;23.10;73.10;;;;;;4997159;28;20037;-57
2022/06/24 10:03:27;;;;;;;2.83;2.53;;;23.10;73.20;;;;;;5002456;28;20040;-59
2022/06/24 10:06:06;;;;;;;3.50;2.90;;;23.10;73.10;;;;;;4995655;28;20076;-58
2022/06/24 10:08:34;;;;;;;3.67;2.85;;;23.20;73.00;;;;;;5001716;28;20021;-57
2022/06/24 10:11:04;;;;;;;3.15;2.60;;;23.30;72.90;;;;;;5005274;28;20775;-58
2022/06/24 10:13:33;;;;;;;2.80;2.60;;;23.40;72.70;;;;;;5007490;28;20051;-58
2022/06/24 10:16:03;;;;;;;3.75;3.00;;;23.40;73.10;;;;;;4991887;28;20037;-59
2022/06/24 10:18:47;;;;;;;2.38;2.17;;;23.40;72.20;;;;;;4997872;28;20091;-58
2022/06/24 10:21:16;;;;;;;3.78;2.65;;;23.40;71.80;;;;;;5001815;28;20048;-58
2022/06/24 10:23:44;;;;;;;2.70;2.40;;;23.40;71.90;;;;;;4999150;28;20032;-57
2022/06/24 10:26:19;;;;;;;3.00;2.35;;;23.40;71.60;;;;;;4995745;28;20037;-58
2022/06/24 10:29:00;;;;;;;2.65;2.45;;;23.40;71.70;;;;;;4995966;28;20044;-59
2022/06/24 10:31:53;;;;;;;2.50;2.30;;;23.40;71.50;;;;;;4995402;28;20645;-59
2022/06/24 10:34:22;;;;;;;2.95;2.65;;;23.40;71.80;;;;;;4999628;28;20041;-58
2022/06/24 10:36:49;;;;;;;2.67;2.42;;;23.30;71.90;;;;;;4997677;28;20037;-59
2022/06/24 10:39:17;;;;;;;2.85;2.40;;;23.20;71.80;;;;;;5002800;28;20417;-58
2022/06/24 10:41:44;;;;;;;2.58;2.10;;;23.20;72.00;;;;;;5011433;28;20028;-57
2022/06/24 10:44:36;;;;;;;4.97;2.78;;;23.20;72.00;;;;;;5004535;28;20437;-57
2022/06/24 10:47:05;;;;;;;2.50;2.22;;;23.10;71.90;;;;;;5003109;28;20095;-58
2022/06/24 10:49:50;;;;;;;2.58;2.38;;;23.10;72.00;;;;;;4996453;28;20053;-59
2022/06/24 10:52:37;;;;;;;3.08;2.50;;;23.10;71.40;;;;;;5000461;28;20072;-58
2022/06/24 10:55:17;;;;;;;3.53;2.75;;;23.10;70.90;;;;;;4999060;28;20037;-58
2022/06/24 10:57:56;;;;;;;2.63;2.40;;;23.00;71.00;;;;;;5009168;28;20036;-59
2022/06/24 11:00:26;;;;;;;2.70;2.47;;;23.00;71.20;;;;;;5001814;28;20038;-58
2022/06/24 11:02:54;;;;;;;3.60;2.80;;;23.00;71.20;;;;;;4997568;28;20130;-58
2022/06/24 11:05:26;;;;;;;2.70;2.50;;;23.00;71.30;;;;;;4992878;28;20044;-58
2022/06/24 11:07:52;;;;;;;3.45;2.70;;;23.00;71.20;;;;;;5003722;28;20794;-58
2022/06/24 11:10:23;;;;;;;2.78;2.42;;;23.00;70.90;;;;;;5008838;28;20064;-57
2022/06/24 11:12:52;;;;;;;2.50;2.30;;;23.00;70.90;;;;;;5007503;28;20572;-58
2022/06/24 11:15:18;;;;;;;3.08;2.78;;;23.10;70.90;;;;;;4997033;28;20698;-58
2022/06/24 11:17:45;;;;;;;3.92;2.60;;;23.00;70.60;;;;;;4994059;28;20052;-58
2022/06/24 11:20:12;;;;;;;2.95;2.65;;;23.00;70.60;;;;;;4996061;28;20061;-58
2022/06/24 11:22:46;;;;;;;2.92;2.63;;;23.10;70.60;;;;;;4995348;28;20017;-58
2022/06/24 11:25:14;;;;;;;3.00;2.60;;;23.00;70.30;;;;;;4993946;28;20143;-58
2022/06/24 11:27:40;;;;;;;3.03;2.72;;;23.10;71.10;;;;;;4996296;28;20044;-58
2022/06/24 11:30:07;;;;;;;2.90;2.60;;;23.10;70.40;;;;;;5002464;28;20168;-58
2022/06/24 11:32:56;;;;;;;3.45;2.70;;;23.10;70.40;;;;;;4995996;28;20037;-57
2022/06/24 11:35:23;;;;;;;2.95;2.72;;;23.10;70.40;;;;;;4999641;28;20026;-58
2022/06/24 11:37:49;;;;;;;2.90;2.60;;;23.20;70.60;;;;;;5004996;28;20028;-57
2022/06/24 11:40:27;;;;;;;2.95;2.65;;;23.20;70.40;;;;;;4996607;28;20378;-57
2022/06/24 11:42:54;;;;;;;3.55;2.92;;;23.30;70.40;;;;;;5003379;28;20029;-57
2022/06/24 11:45:38;;;;;;;2.95;2.75;;;23.30;70.70;;;;;;5007071;28;20034;-58
2022/06/24 11:48:05;;;;;;;3.85;3.10;;;23.40;70.50;;;;;;5007462;28;20204;-58
2022/06/24 11:50:33;;;;;;;3.40;2.53;;;23.50;70.80;;;;;;5004595;28;20021;-58
2022/06/24 11:52:59;;;;;;;3.70;2.80;;;23.50;70.50;;;;;;4995215;28;20125;-59
2022/06/24 11:55:31;;;;;;;3.33;2.85;;;23.60;70.60;;;;;;4998575;28;20087;-58
2022/06/24 11:57:59;;;;;;;2.88;2.58;;;23.70;70.50;;;;;;5004507;28;20129;-58
2022/06/24 12:00:27;;;;;;;2.88;2.58;;;23.70;70.20;;;;;;4992285;28;20033;-57
2022/06/24 12:02:55;;;;;;;4.40;3.03;;;23.80;70.20;;;;;;4990995;28;20068;-57
2022/06/24 12:05:22;;;;;;;2.95;2.70;;;23.90;70.00;;;;;;4998360;28;20060;-58
2022/06/24 12:07:49;;;;;;;17.38;5.65;;;23.90;69.80;;;;;;5001754;28;20525;-58
2022/06/24 12:10:15;;;;;;;3.45;2.97;;;24.00;69.90;;;;;;5006669;28;20101;-58
2022/06/24 12:12:59;;;;;;;3.80;3.33;;;23.90;69.80;;;;;;5004446;28;20088;-58
2022/06/24 12:15:36;;;;;;;3.00;2.70;;;23.90;70.00;;;;;;4996362;28;20034;-56
2022/06/24 12:18:02;;;;;;;3.88;3.10;;;23.80;70.00;;;;;;5001987;28;20720;-57
2022/06/24 12:20:29;;;;;;;3.63;2.78;;;23.70;70.40;;;;;;4998913;28;20932;-58
2022/06/24 12:23:20;;;;;;;3.38;2.75;;;23.70;71.20;;;;;;4994648;28;20033;-59
2022/06/24 12:25:48;;;;;;;3.58;2.90;;;23.60;71.70;;;;;;5002386;28;20030;-59
2022/06/24 12:28:25;;;;;;;3.38;3.08;;;23.50;72.10;;;;;;4995272;28;20042;-57
2022/06/24 12:31:02;;;;;;;3.60;3.05;;;23.40;72.80;;;;;;5000996;28;20075;-58
2022/06/24 12:33:36;;;;;;;5.05;3.60;;;23.30;73.10;;;;;;5003949;28;20028;-59
2022/06/24 12:36:10;;;;;;;4.43;3.03;;;23.20;73.90;;;;;;5006258;28;20046;-58
2022/06/24 12:39:01;;;;;;;3.42;2.45;;;23.00;74.30;;;;;;5002782;28;20694;-58
2022/06/24 12:41:27;;;;;;;2.78;2.47;;;22.70;74.90;;;;;;5000053;28;20071;-58
2022/06/24 12:43:53;;;;;;;3.17;2.63;;;22.50;75.10;;;;;;4998058;28;20034;-58
2022/06/24 12:46:24;;;;;;;3.63;2.53;;;22.30;75.50;;;;;;5002333;28;20460;-57
2022/06/24 12:51:43;;;;;;;2.88;2.53;;;22.00;76.50;;;;;;5006040;28;20047;-59
2022/06/24 12:54:09;;;;;;;3.00;2.63;;;22.00;76.80;;;;;;5002871;28;20124;-59
2022/06/24 12:56:35;;;;;;;3.50;2.97;;;21.90;76.90;;;;;;4998760;28;21298;-59
2022/06/24 12:59:01;;;;;;;2.97;2.78;;;21.90;77.30;;;;;;4992480;28;20041;-59
2022/06/24 13:01:27;;;;;;;3.28;2.75;;;21.90;77.40;;;;;;5000022;28;20641;-58
2022/06/24 13:03:52;;;;;;;3.25;2.90;;;21.80;77.60;;;;;;5004704;28;20038;-58
2022/06/24 13:06:19;;;;;;;3.50;2.97;;;21.80;78.10;;;;;;5001332;28;20033;-59